createdAt,value
2022-09-30T00:00:17.590Z,11.68
2022-09-30T00:05:20.124Z,11.70
2022-09-30T00:10:23.204Z,11.81
2022-09-30T00:15:25.609Z,12.06
2022-09-30T00:20:27.949Z,12.46
2022-09-30T00:25:30.315Z,12.40
2022-09-30T00:30:34.378Z,11.55
2022-09-30T00:35:38.129Z,11.31
2022-09-30T00:40:40.917Z,11.88
2022-09-30T00:45:59.587Z,11.84
2022-09-30T00:51:05.271Z,11.82
2022-09-30T00:56:09.461Z,11.94
2022-09-30T01:01:12.387Z,11.97
2022-09-30T01:06:14.779Z,12.18
2022-09-30T01:11:17.907Z,12.33
2022-09-30T01:17:01.753Z,12.28
2022-09-30T01:22:15.831Z,12.41
2022-09-30T01:27:42.668Z,12.25
2022-09-30T01:33:03.832Z,11.62
2022-09-30T01:38:14.219Z,11.40
2022-09-30T01:43:35.418Z,11.04
2022-09-30T01:48:53.104Z,11.12
2022-09-30T01:54:07.486Z,11.65
2022-09-30T01:59:24.860Z,11.64
2022-09-30T02:04:42.503Z,11.13
2022-09-30T02:10:03.413Z,11.24
2022-09-30T02:15:18.332Z,11.33
2022-09-30T02:20:27.652Z,11.53
2022-09-30T02:25:35.776Z,11.85
2022-09-30T02:30:44.274Z,12.01
2022-09-30T02:35:58.752Z,12.16
2022-09-30T02:41:21.526Z,11.11
2022-09-30T02:46:47.228Z,10.86
2022-09-30T02:52:16.169Z,11.18
2022-09-30T02:57:19.544Z,11.96
2022-09-30T03:02:23.335Z,12.74
2022-09-30T03:07:26.120Z,12.24
2022-09-30T03:12:41.708Z,11.96
2022-09-30T03:18:09.500Z,11.87
2022-09-30T03:23:30.120Z,11.50
2022-09-30T03:28:42.939Z,11.35
2022-09-30T03:34:15.256Z,11.45
2022-09-30T03:39:31.076Z,11.54
2022-09-30T03:44:41.299Z,11.61
2022-09-30T03:49:53.205Z,11.57
2022-09-30T03:55:00.564Z,11.54
2022-09-30T04:00:04.145Z,11.60
2022-09-30T04:05:08.587Z,11.48
2022-09-30T04:10:11.932Z,11.60
2022-09-30T04:15:14.301Z,11.37
2022-09-30T04:20:16.683Z,11.32
2022-09-30T04:25:19.120Z,11.22
2022-09-30T04:30:25.653Z,11.18
2022-09-30T04:35:30.173Z,11.25
2022-09-30T04:40:33.216Z,11.32
2022-09-30T04:45:36.016Z,11.44
2022-09-30T04:50:38.417Z,11.46
2022-09-30T04:55:42.088Z,11.31
2022-09-30T05:00:44.705Z,11.31
2022-09-30T05:05:48.672Z,11.21
2022-09-30T05:10:58.902Z,10.61
2022-09-30T05:16:02.262Z,10.32
2022-09-30T05:21:05.567Z,10.25
2022-09-30T05:26:11.916Z,10.37
2022-09-30T05:31:15.108Z,10.54
2022-09-30T05:36:17.668Z,10.85
2022-09-30T05:41:24.425Z,10.69
2022-09-30T05:46:26.960Z,10.62
2022-09-30T05:51:29.400Z,10.73
2022-09-30T05:56:31.994Z,10.84
2022-09-30T06:01:34.780Z,11.14
2022-09-30T06:06:37.159Z,10.95
2022-09-30T06:11:40.262Z,11.06
2022-09-30T06:16:42.679Z,11.19
2022-09-30T06:21:45.319Z,11.26
2022-09-30T06:26:47.749Z,11.27
2022-09-30T06:31:50.372Z,11.44
2022-09-30T06:36:54.177Z,11.44
2022-09-30T06:41:56.628Z,11.36
2022-09-30T06:47:02.320Z,11.72
2022-09-30T06:52:05.053Z,12.32
2022-09-30T06:57:07.480Z,12.73
2022-09-30T07:02:11.366Z,12.74
2022-09-30T07:07:13.957Z,12.65
2022-09-30T07:12:17.370Z,12.56
2022-09-30T07:17:20.086Z,12.86
2022-09-30T07:22:32.003Z,13.22
2022-09-30T07:27:34.795Z,13.17
2022-09-30T07:32:37.545Z,12.98
2022-09-30T07:37:40.757Z,12.89
2022-09-30T07:42:46.282Z,13.04
2022-09-30T07:47:53.504Z,13.26
2022-09-30T07:52:56.462Z,13.27
2022-09-30T07:57:58.815Z,13.36
2022-09-30T08:03:01.223Z,13.45
2022-09-30T08:08:03.671Z,13.42
2022-09-30T08:13:06.599Z,13.42
2022-09-30T08:18:09.030Z,13.50
2022-09-30T08:23:11.707Z,13.63
2022-09-30T08:28:14.883Z,13.83
2022-09-30T08:33:17.287Z,14.41
2022-09-30T08:38:20.320Z,15.47
2022-09-30T08:43:43.151Z,15.25
2022-09-30T08:49:18.105Z,15.96
2022-09-30T08:54:25.300Z,16.17
2022-09-30T08:59:39.840Z,17.02
2022-09-30T09:04:42.634Z,17.49
2022-09-30T09:09:48.021Z,16.20
2022-09-30T09:15:18.022Z,15.54
2022-09-30T09:20:25.854Z,15.56
2022-09-30T09:25:28.790Z,15.51
2022-09-30T09:30:39.381Z,15.35
2022-09-30T09:35:52.442Z,15.52
2022-09-30T09:41:19.411Z,15.78
2022-09-30T09:46:27.299Z,15.58
2022-09-30T09:51:33.682Z,16.16
2022-09-30T09:56:37.953Z,15.96
2022-09-30T10:01:52.001Z,15.65
2022-09-30T10:07:01.562Z,15.80
2022-09-30T10:12:06.878Z,15.90
2022-09-30T10:17:18.626Z,15.92
2022-09-30T10:22:27.685Z,16.72
2022-09-30T10:27:34.349Z,17.81
2022-09-30T10:32:36.975Z,18.25
2022-09-30T10:37:51.609Z,17.58
2022-09-30T10:42:56.085Z,18.79
2022-09-30T10:48:02.138Z,18.40
2022-09-30T10:53:14.888Z,16.97
2022-09-30T10:58:38.322Z,16.70
2022-09-30T11:03:49.315Z,19.54
2022-09-30T11:09:28.504Z,24.75
2022-09-30T11:14:44.208Z,25.33
2022-09-30T11:20:09.121Z,28.54
2022-09-30T11:25:17.450Z,29.48
2022-09-30T11:30:22.226Z,27.92
2022-09-30T11:35:41.621Z,27.67
2022-09-30T11:41:11.330Z,22.97
2022-09-30T11:46:28.977Z,21.11
2022-09-30T11:52:09.241Z,20.40
2022-09-30T11:57:29.018Z,20.42
2022-09-30T12:02:38.151Z,19.85
2022-09-30T12:07:52.766Z,19.02
2022-09-30T12:13:03.554Z,18.70
2022-09-30T12:18:11.193Z,18.87
2022-09-30T12:23:35.538Z,18.99
2022-09-30T12:29:05.492Z,19.64
2022-09-30T12:34:21.806Z,22.46
2022-09-30T12:39:43.096Z,22.23
2022-09-30T12:45:30.212Z,19.98
2022-09-30T12:50:40.946Z,19.48
2022-09-30T12:55:43.541Z,18.63
2022-09-30T13:01:07.534Z,19.11
2022-09-30T13:06:10.189Z,18.98
2022-09-30T13:11:33.237Z,18.40
2022-09-30T13:17:01.859Z,18.18
2022-09-30T13:22:24.109Z,17.79
2022-09-30T13:27:51.664Z,17.68
2022-09-30T13:32:57.549Z,17.80
2022-09-30T13:38:15.343Z,18.06
2022-09-30T13:43:30.111Z,17.88
2022-09-30T13:48:39.470Z,18.97
2022-09-30T13:53:55.359Z,18.10
2022-09-30T13:59:16.984Z,17.36
2022-09-30T14:04:34.649Z,17.38
2022-09-30T14:09:53.700Z,17.31
2022-09-30T14:15:32.881Z,17.30
2022-09-30T14:20:47.342Z,17.50
2022-09-30T14:26:09.730Z,17.59
2022-09-30T14:31:14.879Z,17.77
2022-09-30T14:36:22.024Z,17.87
2022-09-30T14:41:25.609Z,18.01
2022-09-30T14:46:38.864Z,18.12
2022-09-30T14:51:47.179Z,17.76
2022-09-30T14:56:51.139Z,17.75
2022-09-30T15:02:00.678Z,17.54
2022-09-30T15:07:07.223Z,17.22
2022-09-30T15:12:26.811Z,17.06
2022-09-30T15:17:39.163Z,17.20
2022-09-30T15:22:42.496Z,18.18
2022-09-30T15:27:45.564Z,17.32
2022-09-30T15:32:51.375Z,16.97
2022-09-30T15:38:05.932Z,16.79
2022-09-30T15:43:11.406Z,16.65
2022-09-30T15:48:19.863Z,16.58
2022-09-30T15:53:26.247Z,16.53
2022-09-30T15:58:38.843Z,16.45
2022-09-30T16:03:58.884Z,16.41
2022-09-30T16:09:06.706Z,16.32
2022-09-30T16:14:21.455Z,16.26
2022-09-30T16:19:26.291Z,16.13
2022-09-30T16:24:28.995Z,16.05
2022-09-30T16:29:31.411Z,15.98
2022-09-30T16:34:37.868Z,15.84
2022-09-30T16:39:40.603Z,15.75
2022-09-30T16:44:44.534Z,15.46
2022-09-30T16:49:48.099Z,15.23
2022-09-30T16:54:50.915Z,14.97
2022-09-30T16:59:53.501Z,14.78
2022-09-30T17:04:55.916Z,14.66
2022-09-30T17:09:58.263Z,14.51
2022-09-30T17:15:00.639Z,14.41
2022-09-30T17:20:03.040Z,14.44
2022-09-30T17:25:05.867Z,14.51
2022-09-30T17:30:09.063Z,14.30
2022-09-30T17:35:11.815Z,14.35
2022-09-30T17:40:33.365Z,14.25
2022-09-30T17:45:37.376Z,14.07
2022-09-30T17:50:42.518Z,14.03
2022-09-30T17:55:49.405Z,13.94
2022-09-30T18:00:52.094Z,13.99
2022-09-30T18:05:58.867Z,13.80
2022-09-30T18:11:01.603Z,13.58
2022-09-30T18:16:07.592Z,13.62
2022-09-30T18:21:12.062Z,13.65
2022-09-30T18:26:17.571Z,13.66
2022-09-30T18:31:28.481Z,13.41
2022-09-30T18:36:35.318Z,13.31
2022-09-30T18:41:43.096Z,13.27
2022-09-30T18:46:47.644Z,13.14
2022-09-30T18:51:50.174Z,13.10
2022-09-30T18:56:52.875Z,13.14
2022-09-30T19:01:57.998Z,13.20
2022-09-30T19:07:00.612Z,13.26
2022-09-30T19:12:03.024Z,13.34
2022-09-30T19:17:05.488Z,13.34
2022-09-30T19:22:08.567Z,13.33
2022-09-30T19:27:11.419Z,13.01
2022-09-30T19:32:13.896Z,12.63
2022-09-30T19:37:26.833Z,12.67
2022-09-30T19:42:30.122Z,12.53
2022-09-30T19:47:34.430Z,12.64
2022-09-30T19:52:43.101Z,12.66
2022-09-30T19:57:50.626Z,12.75
2022-09-30T20:02:53.349Z,12.89
2022-09-30T20:07:55.846Z,12.74
2022-09-30T20:12:58.180Z,12.76
2022-09-30T20:18:00.535Z,12.75
2022-09-30T20:23:03.575Z,12.68
2022-09-30T20:28:06.780Z,12.74
2022-09-30T20:33:09.172Z,12.90
2022-09-30T20:38:14.280Z,12.91
2022-09-30T20:43:16.621Z,13.03
2022-09-30T20:48:19.121Z,12.96
2022-09-30T20:53:21.627Z,13.03
2022-09-30T20:58:24.063Z,12.97
2022-09-30T21:03:26.520Z,12.90
2022-09-30T21:08:29.623Z,13.01
2022-09-30T21:13:32.125Z,12.96
2022-09-30T21:18:34.613Z,12.81
2022-09-30T21:23:37.573Z,12.78
2022-09-30T21:28:40.332Z,12.77
2022-09-30T21:33:44.047Z,12.63
2022-09-30T21:38:46.831Z,12.57
2022-09-30T21:43:49.691Z,12.39
2022-09-30T21:48:53.913Z,12.43
2022-09-30T21:53:57.183Z,12.63
2022-09-30T21:58:59.636Z,12.78
2022-09-30T22:04:02.184Z,12.70
2022-09-30T22:09:05.536Z,12.65
2022-09-30T22:14:09.139Z,12.54
2022-09-30T22:19:13.590Z,12.67
2022-09-30T22:24:16.174Z,12.69
2022-09-30T22:29:18.549Z,12.69
2022-09-30T22:34:39.500Z,12.64
2022-09-30T22:39:41.958Z,12.67
2022-09-30T22:44:44.330Z,12.73
2022-09-30T22:49:47.114Z,12.71
2022-09-30T22:54:49.451Z,12.64
2022-09-30T22:59:52.915Z,12.57
2022-09-30T23:04:55.327Z,12.48
2022-09-30T23:09:57.909Z,11.88
2022-09-30T23:15:00.256Z,11.57
2022-09-30T23:20:02.842Z,11.40
2022-09-30T23:25:05.741Z,11.27
2022-09-30T23:30:08.395Z,11.19
2022-09-30T23:35:11.322Z,11.08
2022-09-30T23:40:13.707Z,10.96
2022-09-30T23:45:16.083Z,10.82
2022-09-30T23:50:18.461Z,10.64
2022-09-30T23:55:21.722Z,10.42
